createdAt,value
2024-04-18T00:03:30.009Z,100707.16
2024-04-18T00:08:31.632Z,100712.25
2024-04-18T00:13:53.228Z,100708.50
2024-04-18T00:19:10.267Z,100715.69
2024-04-18T00:24:11.948Z,100714.97
2024-04-18T00:29:25.664Z,100710.56
2024-04-18T00:34:43.356Z,100723.19
2024-04-18T00:40:05.164Z,100717.81
2024-04-18T00:45:13.035Z,100724.66
2024-04-18T00:50:20.007Z,100719.16
2024-04-18T00:55:21.934Z,100723.22
2024-04-18T01:00:44.053Z,100718.66
2024-04-18T01:06:04.304Z,100727.97
2024-04-18T01:11:25.883Z,100726.97
2024-04-18T01:16:27.512Z,100736.47
2024-04-18T01:21:29.495Z,100733.25
2024-04-18T01:26:31.121Z,100739.94
2024-04-18T01:31:32.767Z,100744.69
2024-04-18T01:36:34.415Z,100754.00
2024-04-18T01:41:56.023Z,100762.00
2024-04-18T01:47:16.479Z,100761.69
2024-04-18T01:52:38.736Z,100761.81
2024-04-18T01:57:41.025Z,100763.13
2024-04-18T02:03:01.564Z,100772.25
2024-04-18T02:08:15.847Z,100761.75
2024-04-18T02:13:20.472Z,100769.88
2024-04-18T02:18:22.166Z,100774.69
2024-04-18T02:23:23.832Z,100769.75
2024-04-18T02:28:25.420Z,100773.38
2024-04-18T02:33:47.113Z,100772.88
2024-04-18T02:38:51.300Z,100779.75
2024-04-18T02:43:53.748Z,100783.91
2024-04-18T02:48:55.523Z,100786.06
2024-04-18T02:54:00.178Z,100797.44
2024-04-18T02:59:01.816Z,100800.97
2024-04-18T03:04:22.471Z,100809.88
2024-04-18T03:09:24.160Z,100808.66
2024-04-18T03:14:28.440Z,100801.59
2024-04-18T03:19:40.464Z,100807.59
2024-04-18T03:24:57.493Z,100816.09
2024-04-18T03:30:02.213Z,100819.09
2024-04-18T03:35:09.724Z,100832.34
2024-04-18T03:40:14.289Z,100829.56
2024-04-18T03:45:35.610Z,100835.47
2024-04-18T03:50:55.962Z,100841.84
2024-04-18T03:55:57.590Z,100852.69
2024-04-18T04:00:59.346Z,100859.88
2024-04-18T04:06:01.019Z,100855.97
2024-04-18T04:11:02.704Z,100861.03
2024-04-18T04:16:04.486Z,100864.94
2024-04-18T04:21:12.676Z,100868.19
2024-04-18T04:26:14.831Z,100883.69
2024-04-18T04:31:16.462Z,100883.97
2024-04-18T04:36:18.205Z,100885.31
2024-04-18T04:41:19.854Z,100899.00
2024-04-18T04:46:21.589Z,100904.38
2024-04-18T04:51:23.227Z,100913.88
2024-04-18T04:56:37.594Z,100917.19
2024-04-18T05:01:54.203Z,100929.13
2024-04-18T05:07:15.861Z,100933.72
2024-04-18T05:12:17.558Z,100939.72
2024-04-18T05:17:19.514Z,100950.00
2024-04-18T05:22:41.136Z,100961.31
2024-04-18T05:27:43.841Z,100974.88
2024-04-18T05:33:05.528Z,100967.56
2024-04-18T05:38:07.276Z,100985.81
2024-04-18T05:43:08.884Z,100982.09
2024-04-18T05:48:19.673Z,100996.66
2024-04-18T05:53:21.375Z,101006.47
2024-04-18T05:58:28.751Z,101015.38
2024-04-18T06:03:30.453Z,101021.09
2024-04-18T06:08:32.117Z,101039.97
2024-04-18T06:13:33.801Z,101048.34
2024-04-18T06:18:35.598Z,101050.78
2024-04-18T06:23:37.232Z,101056.81
2024-04-18T06:28:53.997Z,101060.56
2024-04-18T06:34:13.351Z,101066.63
2024-04-18T06:39:15.019Z,101073.84
2024-04-18T06:44:16.683Z,101090.38
2024-04-18T06:49:18.431Z,101099.00
2024-04-18T06:54:20.118Z,101097.88
2024-04-18T06:59:21.815Z,101093.03
2024-04-18T07:04:23.633Z,101108.63
2024-04-18T07:09:45.298Z,101107.50
2024-04-18T07:14:54.624Z,101112.25
2024-04-18T07:20:16.274Z,101115.50
2024-04-18T07:25:37.886Z,101124.81
2024-04-18T07:30:59.522Z,101134.00
2024-04-18T07:36:01.283Z,101141.69
2024-04-18T07:41:02.989Z,101142.63
2024-04-18T07:46:04.683Z,101147.81
2024-04-18T07:51:07.068Z,101161.41
2024-04-18T07:56:09.290Z,101158.59
2024-04-18T08:01:12.354Z,101168.81
2024-04-18T08:06:17.521Z,101186.97
2024-04-18T08:11:52.855Z,101189.13
2024-04-18T08:16:42.751Z,101200.72
2024-04-18T08:21:44.452Z,101196.50
2024-04-18T08:26:46.179Z,101200.38
2024-04-18T08:31:47.874Z,101211.00
2024-04-18T08:36:49.534Z,101202.59
2024-04-18T08:41:52.423Z,101211.22
2024-04-18T08:46:54.104Z,101221.50
2024-04-18T08:51:55.843Z,101226.09
2024-04-18T08:56:58.058Z,101230.59
2024-04-18T09:02:01.118Z,101240.59
2024-04-18T09:07:02.800Z,101231.16
2024-04-18T09:12:05.524Z,101247.06
2024-04-18T09:17:12.468Z,101239.69
2024-04-18T09:22:14.079Z,101241.31
2024-04-18T09:27:16.310Z,101244.84
2024-04-18T09:32:18.177Z,101248.84
2024-04-18T09:37:21.565Z,101252.47
2024-04-18T09:42:46.205Z,101252.44
2024-04-18T09:47:48.392Z,101254.06
2024-04-18T09:52:50.692Z,101253.78
2024-04-18T09:57:52.469Z,101275.44
2024-04-18T10:02:54.644Z,101280.31
2024-04-18T10:07:57.787Z,101288.00
2024-04-18T10:13:00.305Z,101288.03
2024-04-18T10:18:12.605Z,101292.09
2024-04-18T10:23:14.856Z,101288.81
2024-04-18T10:28:25.784Z,101293.13
2024-04-18T10:33:28.129Z,101300.53
2024-04-18T10:38:30.121Z,101297.69
2024-04-18T10:43:34.520Z,101306.53
2024-04-18T10:48:36.583Z,101294.16
2024-04-18T10:53:39.273Z,101301.66
2024-04-18T10:58:40.999Z,101303.47
2024-04-18T11:03:42.731Z,101300.22
2024-04-18T11:08:44.439Z,101306.78
2024-04-18T11:13:46.428Z,101304.22
2024-04-18T11:18:48.515Z,101294.94
2024-04-18T11:23:53.155Z,101298.81
2024-04-18T11:28:56.791Z,101299.22
2024-04-18T11:33:58.546Z,101301.94
2024-04-18T11:39:01.364Z,101310.63
2024-04-18T11:44:03.078Z,101315.47
2024-04-18T11:49:04.898Z,101319.56
2024-04-18T11:54:06.593Z,101307.91
2024-04-18T11:59:11.263Z,101306.56
2024-04-18T12:04:13.028Z,101296.38
2024-04-18T12:09:14.778Z,101308.16
2024-04-18T12:14:16.542Z,101307.56
2024-04-18T12:19:30.151Z,101318.34
2024-04-18T12:24:31.895Z,101316.44
2024-04-18T12:29:42.650Z,101303.59
2024-04-18T12:34:44.283Z,101316.50
2024-04-18T12:39:46.640Z,101320.78
2024-04-18T12:45:00.444Z,101311.91
2024-04-18T12:50:02.361Z,101319.66
2024-04-18T12:55:04.268Z,101306.13
2024-04-18T13:00:06.339Z,101317.38
2024-04-18T13:05:26.834Z,101313.91
2024-04-18T13:10:38.509Z,101315.69
2024-04-18T13:15:59.858Z,101317.09
2024-04-18T13:21:04.079Z,101317.81
2024-04-18T13:26:05.811Z,101311.09
2024-04-18T13:31:07.528Z,101313.84
2024-04-18T13:36:21.427Z,101314.41
2024-04-18T13:41:31.987Z,101308.97
2024-04-18T13:46:49.505Z,101310.88
2024-04-18T13:52:09.618Z,101302.00
2024-04-18T13:57:11.321Z,101299.44
2024-04-18T14:02:15.991Z,101303.31
2024-04-18T14:07:17.796Z,101298.22
2024-04-18T14:12:21.448Z,101295.47
2024-04-18T14:17:31.428Z,101291.03
2024-04-18T14:22:39.009Z,101291.72
2024-04-18T14:27:40.742Z,101294.56
2024-04-18T14:33:02.596Z,101304.91
2024-04-18T14:38:04.510Z,101310.34
2024-04-18T14:43:06.150Z,101301.56
2024-04-18T14:48:08.731Z,101298.44
2024-04-18T14:53:19.601Z,101286.44
2024-04-18T14:58:42.187Z,101287.94
2024-04-18T15:03:55.890Z,101284.28
2024-04-18T15:08:57.637Z,101272.00
2024-04-18T15:13:59.293Z,101269.13
2024-04-18T15:19:00.964Z,101269.47
2024-04-18T15:24:22.893Z,101263.31
2024-04-18T15:29:36.453Z,101268.50
2024-04-18T15:34:56.208Z,101258.06
2024-04-18T15:40:09.982Z,101269.63
2024-04-18T15:45:11.781Z,101266.28
2024-04-18T15:50:19.506Z,101266.94
2024-04-18T15:55:22.484Z,101275.78
2024-04-18T16:00:24.772Z,101273.69
2024-04-18T16:05:26.467Z,101264.19
2024-04-18T16:10:43.689Z,101271.16
2024-04-18T16:15:59.252Z,101272.06
2024-04-18T16:21:11.180Z,101270.19
2024-04-18T16:26:15.922Z,101280.72
2024-04-18T16:31:17.575Z,101272.66
2024-04-18T16:36:27.993Z,101277.50
2024-04-18T16:41:42.961Z,101284.63
2024-04-18T16:46:44.691Z,101279.69
2024-04-18T16:51:46.356Z,101266.69
2024-04-18T16:56:58.294Z,101266.50
2024-04-18T17:02:19.574Z,101267.69
2024-04-18T17:07:21.474Z,101264.19
2024-04-18T17:12:43.387Z,101263.84
2024-04-18T17:18:08.188Z,101268.72
2024-04-18T17:23:09.922Z,101260.59
2024-04-18T17:28:11.613Z,101263.50
2024-04-18T17:33:33.266Z,101260.44
2024-04-18T17:38:34.946Z,101265.97
2024-04-18T17:43:56.557Z,101265.69
2024-04-18T17:49:18.223Z,101258.78
2024-04-18T17:54:19.936Z,101265.81
2024-04-18T17:59:21.756Z,101265.63
2024-04-18T18:04:23.482Z,101268.25
2024-04-18T18:09:25.269Z,101263.91
2024-04-18T18:14:26.907Z,101269.78
2024-04-18T18:19:34.555Z,101264.78
2024-04-18T18:24:36.409Z,101261.81
2024-04-18T18:29:38.074Z,101255.63
2024-04-18T18:34:43.033Z,101254.75
2024-04-18T18:39:44.840Z,101246.09
2024-04-18T18:44:46.497Z,101245.03
2024-04-18T18:49:48.139Z,101253.81
2024-04-18T18:54:49.836Z,101246.97
2024-04-18T18:59:51.533Z,101255.03
2024-04-18T19:04:53.222Z,101255.69
2024-04-18T19:09:54.821Z,101258.94
2024-04-18T19:14:56.449Z,101251.31
2024-04-18T19:19:58.099Z,101246.22
2024-04-18T19:24:59.959Z,101238.63
2024-04-18T19:30:01.628Z,101237.81
2024-04-18T19:35:03.328Z,101238.81
2024-04-18T19:40:05.125Z,101235.09
2024-04-18T19:45:06.933Z,101246.16
2024-04-18T19:50:08.700Z,101248.72
2024-04-18T19:55:10.349Z,101245.34
2024-04-18T20:00:12.228Z,101251.59
2024-04-18T20:05:13.947Z,101246.91
2024-04-18T20:10:15.653Z,101242.59
2024-04-18T20:15:17.396Z,101232.47
2024-04-18T20:20:19.125Z,101232.94
2024-04-18T20:25:20.719Z,101230.34
2024-04-18T20:30:22.359Z,101222.94
2024-04-18T20:35:39.470Z,101231.03
2024-04-18T20:40:41.311Z,101220.53
2024-04-18T20:45:43.138Z,101224.34
2024-04-18T20:50:44.875Z,101213.81
2024-04-18T20:55:46.465Z,101222.72
2024-04-18T21:06:45.454Z,101206.38
2024-04-18T21:11:47.052Z,101202.31
2024-04-18T21:16:48.651Z,101199.41
2024-04-18T21:21:50.251Z,101191.38
2024-04-18T21:26:51.861Z,101186.81
2024-04-18T21:31:53.497Z,101192.75
2024-04-18T21:36:55.118Z,101191.41
2024-04-18T21:41:56.719Z,101187.66
2024-04-18T21:46:58.318Z,101170.66
2024-04-18T21:52:00.134Z,101167.88
2024-04-18T21:57:01.690Z,101172.16
2024-04-18T22:02:03.395Z,101167.50
2024-04-18T22:07:04.998Z,101158.25
2024-04-18T22:12:06.812Z,101156.34
2024-04-18T22:17:08.457Z,101161.63
2024-04-18T22:22:10.060Z,101147.75
2024-04-18T22:27:12.195Z,101150.38
2024-04-18T22:32:13.877Z,101143.19
2024-04-18T22:37:15.501Z,101134.19
2024-04-18T22:42:17.150Z,101121.28
2024-04-18T22:47:18.817Z,101114.56
2024-04-18T22:52:20.478Z,101103.78
2024-04-18T22:57:23.843Z,101104.91
2024-04-18T23:02:25.483Z,101092.47
2024-04-18T23:07:27.103Z,101094.94
2024-04-18T23:12:28.748Z,101084.94
2024-04-18T23:17:30.489Z,101078.09
2024-04-18T23:22:32.153Z,101089.53
2024-04-18T23:27:55.439Z,101081.22
2024-04-18T23:32:57.113Z,101069.13
2024-04-18T23:37:58.737Z,101061.59
2024-04-18T23:43:00.405Z,101049.19
2024-04-18T23:48:02.103Z,101038.56
2024-04-18T23:53:03.768Z,101028.88
2024-04-18T23:58:05.395Z,101018.44
